Terminal Aerodrome Forecast
Issued by NWS

Home | Current Version | Previous Version | Text Only | Print | Product List | Glossary Off
Versions: 1 2 3 4 5 6 7 8 9 10 11 12 13 14 15

008
FTUS43 KBIS 162330
TAFJMS
TAF
KJMS 162330Z 1700/1724 30010KT P6SM SKC
     FM170200 27005KT P6SM SKC
     FM171100 21006KT P6SM SKC
     FM171500 23010KT P6SM SKC
     FM171800 24015G24KT P6SM SKC=

USA.gov is the U.S. government's official web portal to all federal, state and local government web resources and services.